sensor_id;sensor_type;location;lat;lon;timestamp;P1;durP1;ratioP1;P2;durP2;ratioP2
5149;SDS011;2593;52.466;13.436;2023-02-26T00:00:12;14.63;;;1.47;;
5149;SDS011;2593;52.466;13.436;2023-02-26T00:02:42;8.30;;;1.97;;
5149;SDS011;2593;52.466;13.436;2023-02-26T00:05:10;11.73;;;2.00;;
5149;SDS011;2593;52.466;13.436;2023-02-26T00:07:36;1.20;;;1.00;;
5149;SDS011;2593;52.466;13.436;2023-02-26T00:10:03;2.80;;;1.40;;
5149;SDS011;2593;52.466;13.436;2023-02-26T00:12:33;4.90;;;1.53;;
5149;SDS011;2593;52.466;13.436;2023-02-26T00:14:59;4.93;;;1.30;;
5149;SDS011;2593;52.466;13.436;2023-02-26T00:19:57;4.73;;;1.03;;
5149;SDS011;2593;52.466;13.436;2023-02-26T00:22:23;2.00;;;1.10;;
5149;SDS011;2593;52.466;13.436;2023-02-26T00:24:49;7.40;;;1.10;;
5149;SDS011;2593;52.466;13.436;2023-02-26T00:27:15;6.53;;;1.20;;
5149;SDS011;2593;52.466;13.436;2023-02-26T00:29:40;1.40;;;1.30;;
5149;SDS011;2593;52.466;13.436;2023-02-26T00:32:06;3.00;;;1.03;;
5149;SDS011;2593;52.466;13.436;2023-02-26T00:34:32;4.50;;;1.37;;
5149;SDS011;2593;52.466;13.436;2023-02-26T00:37:05;3.77;;;1.20;;
5149;SDS011;2593;52.466;13.436;2023-02-26T00:39:42;1.93;;;0.97;;
5149;SDS011;2593;52.466;13.436;2023-02-26T00:42:34;1.67;;;1.03;;
5149;SDS011;2593;52.466;13.436;2023-02-26T00:45:01;2.57;;;1.10;;
5149;SDS011;2593;52.466;13.436;2023-02-26T00:50:49;1.00;;;0.90;;
5149;SDS011;2593;52.466;13.436;2023-02-26T00:53:27;10.03;;;1.60;;
5149;SDS011;2593;52.466;13.436;2023-02-26T00:55:59;3.20;;;1.60;;
5149;SDS011;2593;52.466;13.436;2023-02-26T00:58:24;3.13;;;1.00;;
5149;SDS011;2593;52.466;13.436;2023-02-26T01:00:50;4.40;;;1.47;;
5149;SDS011;2593;52.466;13.436;2023-02-26T01:03:16;1.13;;;1.00;;
5149;SDS011;2593;52.466;13.436;2023-02-26T01:08:54;1.20;;;0.80;;
5149;SDS011;2593;52.466;13.436;2023-02-26T01:11:19;3.27;;;1.57;;
5149;SDS011;2593;52.466;13.436;2023-02-26T01:13:45;2.50;;;1.10;;
5149;SDS011;2593;52.466;13.436;2023-02-26T01:16:11;4.00;;;1.30;;
5149;SDS011;2593;52.466;13.436;2023-02-26T01:18:45;2.60;;;0.97;;
5149;SDS011;2593;52.466;13.436;2023-02-26T01:21:18;4.70;;;0.90;;
5149;SDS011;2593;52.466;13.436;2023-02-26T01:23:55;1.03;;;0.83;;
5149;SDS011;2593;52.466;13.436;2023-02-26T01:26:22;2.10;;;1.10;;
5149;SDS011;2593;52.466;13.436;2023-02-26T01:28:51;2.60;;;1.30;;
5149;SDS011;2593;52.466;13.436;2023-02-26T01:39:46;0.70;;;0.70;;
5149;SDS011;2593;52.466;13.436;2023-02-26T01:42:34;2.47;;;0.87;;
5149;SDS011;2593;52.466;13.436;2023-02-26T01:45:03;5.03;;;0.80;;
5149;SDS011;2593;52.466;13.436;2023-02-26T01:50:24;1.60;;;0.63;;
5149;SDS011;2593;52.466;13.436;2023-02-26T01:55:41;2.63;;;0.70;;
5149;SDS011;2593;52.466;13.436;2023-02-26T01:58:09;2.97;;;0.90;;
5149;SDS011;2593;52.466;13.436;2023-02-26T02:00:36;1.53;;;0.90;;
5149;SDS011;2593;52.466;13.436;2023-02-26T02:03:01;3.30;;;1.63;;
5149;SDS011;2593;52.466;13.436;2023-02-26T02:05:38;2.10;;;1.00;;
5149;SDS011;2593;52.466;13.436;2023-02-26T02:08:27;2.73;;;1.00;;
5149;SDS011;2593;52.466;13.436;2023-02-26T02:10:54;2.80;;;1.23;;
5149;SDS011;2593;52.466;13.436;2023-02-26T02:15:57;4.53;;;1.47;;
5149;SDS011;2593;52.466;13.436;2023-02-26T02:19:00;1.40;;;0.90;;
5149;SDS011;2593;52.466;13.436;2023-02-26T02:24:34;1.60;;;1.20;;
5149;SDS011;2593;52.466;13.436;2023-02-26T02:30:33;2.17;;;1.27;;
5149;SDS011;2593;52.466;13.436;2023-02-26T02:33:19;2.80;;;0.90;;
5149;SDS011;2593;52.466;13.436;2023-02-26T02:35:51;2.87;;;0.90;;
5149;SDS011;2593;52.466;13.436;2023-02-26T02:38:34;18.97;;;1.10;;
5149;SDS011;2593;52.466;13.436;2023-02-26T02:41:18;2.60;;;0.93;;
5149;SDS011;2593;52.466;13.436;2023-02-26T02:43:48;1.77;;;0.60;;
5149;SDS011;2593;52.466;13.436;2023-02-26T02:46:17;1.90;;;0.90;;
5149;SDS011;2593;52.466;13.436;2023-02-26T02:48:53;1.57;;;0.83;;
5149;SDS011;2593;52.466;13.436;2023-02-26T02:51:40;4.40;;;1.53;;
5149;SDS011;2593;52.466;13.436;2023-02-26T02:54:12;3.00;;;0.90;;
5149;SDS011;2593;52.466;13.436;2023-02-26T02:57:11;1.93;;;0.83;;
5149;SDS011;2593;52.466;13.436;2023-02-26T02:59:43;4.17;;;1.00;;
5149;SDS011;2593;52.466;13.436;2023-02-26T03:04:47;1.20;;;0.70;;
5149;SDS011;2593;52.466;13.436;2023-02-26T03:07:13;2.23;;;0.80;;
5149;SDS011;2593;52.466;13.436;2023-02-26T03:09:39;5.33;;;1.40;;
5149;SDS011;2593;52.466;13.436;2023-02-26T03:12:05;5.70;;;1.03;;
5149;SDS011;2593;52.466;13.436;2023-02-26T03:14:30;4.20;;;0.80;;
5149;SDS011;2593;52.466;13.436;2023-02-26T03:22:27;3.97;;;0.70;;
5149;SDS011;2593;52.466;13.436;2023-02-26T03:33:35;2.73;;;0.97;;
5149;SDS011;2593;52.466;13.436;2023-02-26T03:39:02;2.97;;;1.10;;
5149;SDS011;2593;52.466;13.436;2023-02-26T03:41:33;2.70;;;0.60;;
5149;SDS011;2593;52.466;13.436;2023-02-26T03:44:07;2.80;;;0.97;;
5149;SDS011;2593;52.466;13.436;2023-02-26T03:46:59;1.90;;;0.77;;
5149;SDS011;2593;52.466;13.436;2023-02-26T03:49:41;4.97;;;1.10;;
5149;SDS011;2593;52.466;13.436;2023-02-26T03:52:10;0.90;;;0.70;;
5149;SDS011;2593;52.466;13.436;2023-02-26T03:54:37;1.33;;;0.70;;
5149;SDS011;2593;52.466;13.436;2023-02-26T03:57:13;1.53;;;0.80;;
5149;SDS011;2593;52.466;13.436;2023-02-26T03:59:39;2.87;;;0.70;;
5149;SDS011;2593;52.466;13.436;2023-02-26T04:05:10;8.50;;;1.13;;
5149;SDS011;2593;52.466;13.436;2023-02-26T04:07:39;0.70;;;0.50;;
5149;SDS011;2593;52.466;13.436;2023-02-26T04:10:05;5.50;;;0.60;;
5149;SDS011;2593;52.466;13.436;2023-02-26T04:12:32;3.63;;;0.60;;
5149;SDS011;2593;52.466;13.436;2023-02-26T04:14:58;2.13;;;0.80;;
5149;SDS011;2593;52.466;13.436;2023-02-26T04:17:24;4.23;;;0.70;;
5149;SDS011;2593;52.466;13.436;2023-02-26T04:19:49;2.60;;;1.20;;
5149;SDS011;2593;52.466;13.436;2023-02-26T04:22:15;3.53;;;0.83;;
5149;SDS011;2593;52.466;13.436;2023-02-26T04:24:41;1.87;;;0.80;;
5149;SDS011;2593;52.466;13.436;2023-02-26T04:27:06;1.37;;;0.80;;
5149;SDS011;2593;52.466;13.436;2023-02-26T04:29:32;1.83;;;0.80;;
5149;SDS011;2593;52.466;13.436;2023-02-26T04:31:57;1.07;;;0.60;;
5149;SDS011;2593;52.466;13.436;2023-02-26T04:34:24;3.07;;;0.70;;
5149;SDS011;2593;52.466;13.436;2023-02-26T04:36:50;5.87;;;1.87;;
5149;SDS011;2593;52.466;13.436;2023-02-26T04:39:16;1.23;;;0.80;;
5149;SDS011;2593;52.466;13.436;2023-02-26T04:41:41;4.20;;;1.40;;
5149;SDS011;2593;52.466;13.436;2023-02-26T04:44:07;2.77;;;0.90;;
5149;SDS011;2593;52.466;13.436;2023-02-26T04:46:32;3.97;;;0.90;;
5149;SDS011;2593;52.466;13.436;2023-02-26T04:48:58;3.57;;;0.70;;
5149;SDS011;2593;52.466;13.436;2023-02-26T04:51:24;2.40;;;0.80;;
5149;SDS011;2593;52.466;13.436;2023-02-26T04:53:49;3.03;;;0.80;;
5149;SDS011;2593;52.466;13.436;2023-02-26T04:56:15;2.93;;;0.73;;
5149;SDS011;2593;52.466;13.436;2023-02-26T04:58:41;4.53;;;1.00;;
5149;SDS011;2593;52.466;13.436;2023-02-26T05:01:06;1.30;;;0.80;;
5149;SDS011;2593;52.466;13.436;2023-02-26T05:03:33;3.60;;;0.80;;
5149;SDS011;2593;52.466;13.436;2023-02-26T05:05:59;2.93;;;0.80;;
5149;SDS011;2593;52.466;13.436;2023-02-26T05:08:24;2.03;;;0.80;;
5149;SDS011;2593;52.466;13.436;2023-02-26T05:10:50;6.90;;;0.97;;
5149;SDS011;2593;52.466;13.436;2023-02-26T05:13:17;10.63;;;1.10;;
5149;SDS011;2593;52.466;13.436;2023-02-26T05:15:43;0.70;;;0.70;;
5149;SDS011;2593;52.466;13.436;2023-02-26T05:18:09;2.10;;;0.90;;
5149;SDS011;2593;52.466;13.436;2023-02-26T05:20:35;3.67;;;0.70;;
5149;SDS011;2593;52.466;13.436;2023-02-26T05:23:00;1.30;;;1.00;;
5149;SDS011;2593;52.466;13.436;2023-02-26T05:25:26;4.63;;;0.70;;
5149;SDS011;2593;52.466;13.436;2023-02-26T05:27:52;1.80;;;0.80;;
5149;SDS011;2593;52.466;13.436;2023-02-26T05:30:17;2.63;;;1.00;;
5149;SDS011;2593;52.466;13.436;2023-02-26T05:32:43;2.20;;;0.87;;
5149;SDS011;2593;52.466;13.436;2023-02-26T05:35:09;2.07;;;0.77;;
5149;SDS011;2593;52.466;13.436;2023-02-26T05:37:35;2.40;;;1.17;;
5149;SDS011;2593;52.466;13.436;2023-02-26T05:40:03;3.23;;;1.30;;
5149;SDS011;2593;52.466;13.436;2023-02-26T05:42:30;1.40;;;0.73;;
5149;SDS011;2593;52.466;13.436;2023-02-26T05:44:56;4.43;;;0.90;;
5149;SDS011;2593;52.466;13.436;2023-02-26T05:47:21;1.80;;;0.70;;
5149;SDS011;2593;52.466;13.436;2023-02-26T05:49:47;5.57;;;0.80;;
5149;SDS011;2593;52.466;13.436;2023-02-26T05:52:13;1.73;;;0.70;;
5149;SDS011;2593;52.466;13.436;2023-02-26T05:54:39;0.70;;;0.70;;
5149;SDS011;2593;52.466;13.436;2023-02-26T05:57:05;0.77;;;0.77;;
5149;SDS011;2593;52.466;13.436;2023-02-26T05:59:31;4.27;;;1.43;;
5149;SDS011;2593;52.466;13.436;2023-02-26T06:01:56;0.90;;;0.70;;
5149;SDS011;2593;52.466;13.436;2023-02-26T06:04:22;7.00;;;0.90;;
5149;SDS011;2593;52.466;13.436;2023-02-26T06:06:48;5.77;;;1.37;;
5149;SDS011;2593;52.466;13.436;2023-02-26T06:09:13;9.50;;;0.97;;
5149;SDS011;2593;52.466;13.436;2023-02-26T06:11:39;1.67;;;0.90;;
5149;SDS011;2593;52.466;13.436;2023-02-26T06:14:05;4.83;;;1.00;;
5149;SDS011;2593;52.466;13.436;2023-02-26T06:16:30;3.63;;;0.70;;
5149;SDS011;2593;52.466;13.436;2023-02-26T06:18:56;2.93;;;1.17;;
5149;SDS011;2593;52.466;13.436;2023-02-26T06:21:22;1.53;;;0.93;;
5149;SDS011;2593;52.466;13.436;2023-02-26T06:23:48;0.97;;;0.80;;
5149;SDS011;2593;52.466;13.436;2023-02-26T06:26:13;2.23;;;0.80;;
5149;SDS011;2593;52.466;13.436;2023-02-26T06:28:39;1.53;;;1.43;;
5149;SDS011;2593;52.466;13.436;2023-02-26T06:31:05;1.67;;;0.80;;
5149;SDS011;2593;52.466;13.436;2023-02-26T06:33:31;1.20;;;0.80;;
5149;SDS011;2593;52.466;13.436;2023-02-26T06:35:56;4.07;;;0.93;;
5149;SDS011;2593;52.466;13.436;2023-02-26T06:38:24;7.57;;;1.07;;
5149;SDS011;2593;52.466;13.436;2023-02-26T06:40:50;3.63;;;1.20;;
5149;SDS011;2593;52.466;13.436;2023-02-26T06:43:16;0.80;;;0.63;;
5149;SDS011;2593;52.466;13.436;2023-02-26T06:45:42;1.77;;;0.80;;
5149;SDS011;2593;52.466;13.436;2023-02-26T06:48:07;6.60;;;0.87;;
5149;SDS011;2593;52.466;13.436;2023-02-26T06:50:33;10.33;;;1.10;;
5149;SDS011;2593;52.466;13.436;2023-02-26T06:52:59;1.37;;;0.80;;
5149;SDS011;2593;52.466;13.436;2023-02-26T06:55:25;1.07;;;0.70;;
5149;SDS011;2593;52.466;13.436;2023-02-26T06:57:51;6.40;;;1.13;;
5149;SDS011;2593;52.466;13.436;2023-02-26T07:00:18;1.37;;;1.03;;
5149;SDS011;2593;52.466;13.436;2023-02-26T07:02:44;1.27;;;1.17;;
5149;SDS011;2593;52.466;13.436;2023-02-26T07:05:10;3.90;;;1.00;;
5149;SDS011;2593;52.466;13.436;2023-02-26T07:07:36;4.80;;;0.90;;
5149;SDS011;2593;52.466;13.436;2023-02-26T07:10:01;4.87;;;0.90;;
5149;SDS011;2593;52.466;13.436;2023-02-26T07:12:28;5.23;;;0.80;;
5149;SDS011;2593;52.466;13.436;2023-02-26T07:14:53;5.03;;;1.17;;
5149;SDS011;2593;52.466;13.436;2023-02-26T07:17:19;3.77;;;0.70;;
5149;SDS011;2593;52.466;13.436;2023-02-26T07:19:48;2.40;;;1.07;;
5149;SDS011;2593;52.466;13.436;2023-02-26T07:22:15;6.33;;;0.90;;
5149;SDS011;2593;52.466;13.436;2023-02-26T07:24:41;1.90;;;0.70;;
5149;SDS011;2593;52.466;13.436;2023-02-26T07:27:07;5.53;;;1.73;;
5149;SDS011;2593;52.466;13.436;2023-02-26T07:29:33;5.43;;;0.73;;
5149;SDS011;2593;52.466;13.436;2023-02-26T07:31:59;4.73;;;0.90;;
5149;SDS011;2593;52.466;13.436;2023-02-26T07:34:25;3.63;;;1.07;;
5149;SDS011;2593;52.466;13.436;2023-02-26T07:36:51;7.03;;;1.00;;
5149;SDS011;2593;52.466;13.436;2023-02-26T07:39:16;2.50;;;0.90;;
5149;SDS011;2593;52.466;13.436;2023-02-26T07:41:42;3.27;;;1.23;;
5149;SDS011;2593;52.466;13.436;2023-02-26T07:44:08;9.50;;;2.10;;
5149;SDS011;2593;52.466;13.436;2023-02-26T07:46:33;4.03;;;1.33;;
5149;SDS011;2593;52.466;13.436;2023-02-26T07:48:59;4.03;;;1.67;;
5149;SDS011;2593;52.466;13.436;2023-02-26T07:51:24;6.27;;;1.20;;
5149;SDS011;2593;52.466;13.436;2023-02-26T07:53:50;4.43;;;0.80;;
5149;SDS011;2593;52.466;13.436;2023-02-26T07:56:16;13.37;;;1.03;;
5149;SDS011;2593;52.466;13.436;2023-02-26T07:58:41;2.07;;;0.80;;
5149;SDS011;2593;52.466;13.436;2023-02-26T08:01:07;1.97;;;1.00;;
5149;SDS011;2593;52.466;13.436;2023-02-26T08:03:33;3.60;;;0.97;;
5149;SDS011;2593;52.466;13.436;2023-02-26T08:05:59;7.30;;;1.67;;
5149;SDS011;2593;52.466;13.436;2023-02-26T08:08:25;12.23;;;1.10;;
5149;SDS011;2593;52.466;13.436;2023-02-26T08:10:51;3.10;;;1.00;;
5149;SDS011;2593;52.466;13.436;2023-02-26T08:13:17;1.53;;;1.03;;
5149;SDS011;2593;52.466;13.436;2023-02-26T08:15:43;2.47;;;0.90;;
5149;SDS011;2593;52.466;13.436;2023-02-26T08:18:09;9.23;;;1.00;;
5149;SDS011;2593;52.466;13.436;2023-02-26T08:20:35;2.40;;;1.20;;
5149;SDS011;2593;52.466;13.436;2023-02-26T08:23:01;6.50;;;1.23;;
5149;SDS011;2593;52.466;13.436;2023-02-26T08:25:26;4.30;;;1.10;;
5149;SDS011;2593;52.466;13.436;2023-02-26T08:27:52;1.47;;;0.80;;
5149;SDS011;2593;52.466;13.436;2023-02-26T08:30:21;2.80;;;0.80;;
5149;SDS011;2593;52.466;13.436;2023-02-26T08:32:47;4.60;;;0.93;;
5149;SDS011;2593;52.466;13.436;2023-02-26T08:35:13;6.53;;;1.77;;
5149;SDS011;2593;52.466;13.436;2023-02-26T08:37:40;10.03;;;1.00;;
5149;SDS011;2593;52.466;13.436;2023-02-26T08:40:06;4.03;;;1.60;;
5149;SDS011;2593;52.466;13.436;2023-02-26T08:42:33;2.40;;;1.70;;
5149;SDS011;2593;52.466;13.436;2023-02-26T08:44:59;5.63;;;1.57;;
5149;SDS011;2593;52.466;13.436;2023-02-26T08:47:25;2.07;;;1.20;;
5149;SDS011;2593;52.466;13.436;2023-02-26T08:49:51;3.63;;;1.10;;
5149;SDS011;2593;52.466;13.436;2023-02-26T08:52:18;10.40;;;2.90;;
5149;SDS011;2593;52.466;13.436;2023-02-26T08:54:44;10.63;;;4.27;;
5149;SDS011;2593;52.466;13.436;2023-02-26T08:57:10;21.47;;;2.63;;
5149;SDS011;2593;52.466;13.436;2023-02-26T08:59:36;12.07;;;4.63;;
5149;SDS011;2593;52.466;13.436;2023-02-26T09:02:01;33.17;;;14.20;;
5149;SDS011;2593;52.466;13.436;2023-02-26T09:04:27;19.80;;;9.97;;
5149;SDS011;2593;52.466;13.436;2023-02-26T09:06:53;2.00;;;1.80;;
5149;SDS011;2593;52.466;13.436;2023-02-26T09:09:19;3.03;;;1.00;;
5149;SDS011;2593;52.466;13.436;2023-02-26T09:11:44;2.40;;;1.53;;
5149;SDS011;2593;52.466;13.436;2023-02-26T09:14:10;2.50;;;1.10;;
5149;SDS011;2593;52.466;13.436;2023-02-26T09:16:36;4.43;;;1.07;;
5149;SDS011;2593;52.466;13.436;2023-02-26T09:19:03;2.03;;;1.17;;
5149;SDS011;2593;52.466;13.436;2023-02-26T09:21:30;1.97;;;1.63;;
5149;SDS011;2593;52.466;13.436;2023-02-26T09:23:56;7.23;;;1.20;;
5149;SDS011;2593;52.466;13.436;2023-02-26T09:26:22;3.63;;;1.43;;
5149;SDS011;2593;52.466;13.436;2023-02-26T09:28:48;5.73;;;1.30;;
5149;SDS011;2593;52.466;13.436;2023-02-26T09:31:14;11.20;;;1.40;;
5149;SDS011;2593;52.466;13.436;2023-02-26T09:33:39;3.73;;;1.30;;
5149;SDS011;2593;52.466;13.436;2023-02-26T09:36:06;3.83;;;1.03;;
5149;SDS011;2593;52.466;13.436;2023-02-26T09:38:31;9.10;;;2.17;;
5149;SDS011;2593;52.466;13.436;2023-02-26T09:41:01;2.37;;;1.37;;
5149;SDS011;2593;52.466;13.436;2023-02-26T09:46:00;5.73;;;1.80;;
5149;SDS011;2593;52.466;13.436;2023-02-26T09:48:35;3.33;;;1.27;;
5149;SDS011;2593;52.466;13.436;2023-02-26T09:51:02;4.13;;;0.97;;
5149;SDS011;2593;52.466;13.436;2023-02-26T09:53:34;1.53;;;0.90;;
5149;SDS011;2593;52.466;13.436;2023-02-26T09:56:12;3.73;;;0.80;;
5149;SDS011;2593;52.466;13.436;2023-02-26T09:58:42;6.07;;;1.60;;
5149;SDS011;2593;52.466;13.436;2023-02-26T10:14:25;7.13;;;1.23;;
5149;SDS011;2593;52.466;13.436;2023-02-26T10:17:00;1.30;;;0.80;;
5149;SDS011;2593;52.466;13.436;2023-02-26T10:19:33;1.10;;;0.60;;
5149;SDS011;2593;52.466;13.436;2023-02-26T10:24:43;2.97;;;0.70;;
5149;SDS011;2593;52.466;13.436;2023-02-26T10:27:21;5.03;;;1.10;;
5149;SDS011;2593;52.466;13.436;2023-02-26T10:30:06;8.80;;;1.00;;
5149;SDS011;2593;52.466;13.436;2023-02-26T10:32:45;4.70;;;0.93;;
5149;SDS011;2593;52.466;13.436;2023-02-26T10:35:20;3.03;;;0.90;;
5149;SDS011;2593;52.466;13.436;2023-02-26T10:43:33;2.20;;;1.23;;
5149;SDS011;2593;52.466;13.436;2023-02-26T10:51:19;2.73;;;0.90;;
5149;SDS011;2593;52.466;13.436;2023-02-26T10:53:58;1.60;;;0.80;;
5149;SDS011;2593;52.466;13.436;2023-02-26T10:56:45;3.87;;;3.23;;
5149;SDS011;2593;52.466;13.436;2023-02-26T10:59:10;1.27;;;1.03;;
5149;SDS011;2593;52.466;13.436;2023-02-26T11:01:36;2.20;;;0.77;;
5149;SDS011;2593;52.466;13.436;2023-02-26T11:04:04;5.00;;;1.00;;
5149;SDS011;2593;52.466;13.436;2023-02-26T11:06:43;1.43;;;0.70;;
5149;SDS011;2593;52.466;13.436;2023-02-26T11:14:18;5.93;;;1.27;;
5149;SDS011;2593;52.466;13.436;2023-02-26T11:16:55;1.77;;;0.90;;
5149;SDS011;2593;52.466;13.436;2023-02-26T11:19:25;0.83;;;0.70;;
5149;SDS011;2593;52.466;13.436;2023-02-26T11:21:57;0.70;;;0.60;;
5149;SDS011;2593;52.466;13.436;2023-02-26T11:24:34;4.93;;;0.70;;
5149;SDS011;2593;52.466;13.436;2023-02-26T11:27:03;1.63;;;0.77;;
5149;SDS011;2593;52.466;13.436;2023-02-26T11:29:36;2.00;;;0.67;;
5149;SDS011;2593;52.466;13.436;2023-02-26T11:32:04;3.53;;;0.80;;
5149;SDS011;2593;52.466;13.436;2023-02-26T11:34:30;4.07;;;0.87;;
5149;SDS011;2593;52.466;13.436;2023-02-26T11:36:57;0.77;;;0.60;;
5149;SDS011;2593;52.466;13.436;2023-02-26T11:39:25;5.07;;;1.10;;
5149;SDS011;2593;52.466;13.436;2023-02-26T11:41:57;2.63;;;0.90;;
5149;SDS011;2593;52.466;13.436;2023-02-26T11:44:46;2.73;;;0.90;;
5149;SDS011;2593;52.466;13.436;2023-02-26T11:47:15;0.90;;;0.60;;
5149;SDS011;2593;52.466;13.436;2023-02-26T11:49:52;1.10;;;0.80;;
5149;SDS011;2593;52.466;13.436;2023-02-26T11:52:20;1.17;;;0.80;;
5149;SDS011;2593;52.466;13.436;2023-02-26T11:55:20;1.00;;;0.70;;
5149;SDS011;2593;52.466;13.436;2023-02-26T11:57:54;0.77;;;0.70;;
5149;SDS011;2593;52.466;13.436;2023-02-26T12:02:59;2.77;;;0.60;;
5149;SDS011;2593;52.466;13.436;2023-02-26T12:05:28;1.40;;;0.70;;
5149;SDS011;2593;52.466;13.436;2023-02-26T12:07:55;5.33;;;1.00;;
5149;SDS011;2593;52.466;13.436;2023-02-26T12:10:23;1.63;;;0.80;;
5149;SDS011;2593;52.466;13.436;2023-02-26T12:13:23;1.80;;;1.10;;
5149;SDS011;2593;52.466;13.436;2023-02-26T12:15:59;11.33;;;0.90;;
5149;SDS011;2593;52.466;13.436;2023-02-26T12:18:46;1.50;;;0.70;;
5149;SDS011;2593;52.466;13.436;2023-02-26T12:21:24;2.80;;;0.80;;
5149;SDS011;2593;52.466;13.436;2023-02-26T12:24:06;4.83;;;1.03;;
5149;SDS011;2593;52.466;13.436;2023-02-26T12:35:44;3.17;;;0.90;;
5149;SDS011;2593;52.466;13.436;2023-02-26T12:43:46;2.20;;;1.10;;
5149;SDS011;2593;52.466;13.436;2023-02-26T12:54:57;1.80;;;1.30;;
5149;SDS011;2593;52.466;13.436;2023-02-26T13:05:48;5.33;;;2.03;;
5149;SDS011;2593;52.466;13.436;2023-02-26T13:16:41;3.70;;;0.70;;
5149;SDS011;2593;52.466;13.436;2023-02-26T13:21:51;0.83;;;0.83;;
5149;SDS011;2593;52.466;13.436;2023-02-26T13:24:26;2.60;;;1.17;;
5149;SDS011;2593;52.466;13.436;2023-02-26T13:26:58;5.50;;;0.90;;
5149;SDS011;2593;52.466;13.436;2023-02-26T13:29:28;3.47;;;1.00;;
5149;SDS011;2593;52.466;13.436;2023-02-26T13:37:03;15.30;;;0.83;;
5149;SDS011;2593;52.466;13.436;2023-02-26T13:39:43;2.20;;;0.87;;
5149;SDS011;2593;52.466;13.436;2023-02-26T13:53:03;1.43;;;1.27;;
5149;SDS011;2593;52.466;13.436;2023-02-26T13:55:52;1.97;;;1.20;;
5149;SDS011;2593;52.466;13.436;2023-02-26T14:03:36;0.97;;;0.87;;
5149;SDS011;2593;52.466;13.436;2023-02-26T14:06:38;1.37;;;0.80;;
5149;SDS011;2593;52.466;13.436;2023-02-26T14:09:14;1.60;;;0.80;;
5149;SDS011;2593;52.466;13.436;2023-02-26T14:12:02;1.27;;;0.70;;
5149;SDS011;2593;52.466;13.436;2023-02-26T14:19:35;2.47;;;0.90;;
5149;SDS011;2593;52.466;13.436;2023-02-26T14:22:19;4.73;;;1.03;;
5149;SDS011;2593;52.466;13.436;2023-02-26T14:32:46;1.20;;;0.97;;
5149;SDS011;2593;52.466;13.436;2023-02-26T14:35:25;3.13;;;1.43;;
5149;SDS011;2593;52.466;13.436;2023-02-26T14:37:57;2.00;;;1.27;;
5149;SDS011;2593;52.466;13.436;2023-02-26T14:40:27;1.27;;;0.70;;
5149;SDS011;2593;52.466;13.436;2023-02-26T14:42:58;2.00;;;0.80;;
5149;SDS011;2593;52.466;13.436;2023-02-26T14:47:55;2.83;;;0.70;;
5149;SDS011;2593;52.466;13.436;2023-02-26T14:50:23;5.23;;;0.83;;
5149;SDS011;2593;52.466;13.436;2023-02-26T14:58:45;4.97;;;2.07;;
5149;SDS011;2593;52.466;13.436;2023-02-26T15:01:44;1.53;;;1.17;;
5149;SDS011;2593;52.466;13.436;2023-02-26T15:09:51;9.30;;;4.77;;
5149;SDS011;2593;52.466;13.436;2023-02-26T15:21:21;7.67;;;0.90;;
5149;SDS011;2593;52.466;13.436;2023-02-26T15:23:56;4.00;;;0.80;;
5149;SDS011;2593;52.466;13.436;2023-02-26T15:26:27;0.93;;;0.73;;
5149;SDS011;2593;52.466;13.436;2023-02-26T15:28:53;3.20;;;0.90;;
5149;SDS011;2593;52.466;13.436;2023-02-26T15:31:20;0.70;;;0.70;;
5149;SDS011;2593;52.466;13.436;2023-02-26T15:33:57;3.90;;;2.03;;
5149;SDS011;2593;52.466;13.436;2023-02-26T15:36:23;7.33;;;2.70;;
5149;SDS011;2593;52.466;13.436;2023-02-26T15:38:57;5.63;;;2.40;;
5149;SDS011;2593;52.466;13.436;2023-02-26T15:41:25;2.00;;;1.20;;
5149;SDS011;2593;52.466;13.436;2023-02-26T15:43:54;3.03;;;1.00;;
5149;SDS011;2593;52.466;13.436;2023-02-26T15:46:30;1.23;;;0.90;;
5149;SDS011;2593;52.466;13.436;2023-02-26T15:49:04;3.20;;;1.10;;
5149;SDS011;2593;52.466;13.436;2023-02-26T15:51:36;2.40;;;0.70;;
5149;SDS011;2593;52.466;13.436;2023-02-26T15:54:02;2.93;;;0.97;;
5149;SDS011;2593;52.466;13.436;2023-02-26T15:56:30;2.77;;;0.90;;
5149;SDS011;2593;52.466;13.436;2023-02-26T15:59:01;0.87;;;0.67;;
5149;SDS011;2593;52.466;13.436;2023-02-26T16:01:41;3.43;;;0.80;;
5149;SDS011;2593;52.466;13.436;2023-02-26T16:04:10;7.23;;;0.70;;
5149;SDS011;2593;52.466;13.436;2023-02-26T16:06:42;3.13;;;1.33;;
5149;SDS011;2593;52.466;13.436;2023-02-26T16:09:18;1.20;;;1.10;;
5149;SDS011;2593;52.466;13.436;2023-02-26T16:11:45;1.43;;;1.27;;
5149;SDS011;2593;52.466;13.436;2023-02-26T16:14:24;1.77;;;1.10;;
5149;SDS011;2593;52.466;13.436;2023-02-26T16:16:54;1.90;;;1.23;;
5149;SDS011;2593;52.466;13.436;2023-02-26T16:24:53;1.77;;;0.90;;
5149;SDS011;2593;52.466;13.436;2023-02-26T16:27:23;4.90;;;0.90;;
5149;SDS011;2593;52.466;13.436;2023-02-26T16:29:52;1.73;;;0.93;;
5149;SDS011;2593;52.466;13.436;2023-02-26T16:32:21;2.30;;;1.40;;
5149;SDS011;2593;52.466;13.436;2023-02-26T16:34:53;4.97;;;1.47;;
5149;SDS011;2593;52.466;13.436;2023-02-26T16:37:23;4.40;;;1.40;;
5149;SDS011;2593;52.466;13.436;2023-02-26T16:40:06;5.10;;;1.10;;
5149;SDS011;2593;52.466;13.436;2023-02-26T16:43:28;4.53;;;1.70;;
5149;SDS011;2593;52.466;13.436;2023-02-26T16:48:04;2.90;;;1.80;;
5149;SDS011;2593;52.466;13.436;2023-02-26T16:50:41;2.80;;;1.53;;
5149;SDS011;2593;52.466;13.436;2023-02-26T16:53:07;3.03;;;1.90;;
5149;SDS011;2593;52.466;13.436;2023-02-26T16:55:39;2.40;;;1.73;;
5149;SDS011;2593;52.466;13.436;2023-02-26T16:58:07;3.43;;;1.93;;
5149;SDS011;2593;52.466;13.436;2023-02-26T17:00:37;3.17;;;2.10;;
5149;SDS011;2593;52.466;13.436;2023-02-26T17:03:06;2.80;;;2.30;;
5149;SDS011;2593;52.466;13.436;2023-02-26T17:05:53;4.53;;;2.20;;
5149;SDS011;2593;52.466;13.436;2023-02-26T17:08:23;4.33;;;1.70;;
5149;SDS011;2593;52.466;13.436;2023-02-26T17:10:53;3.67;;;2.47;;
5149;SDS011;2593;52.466;13.436;2023-02-26T17:13:46;5.37;;;2.40;;
5149;SDS011;2593;52.466;13.436;2023-02-26T17:16:32;5.03;;;2.17;;
5149;SDS011;2593;52.466;13.436;2023-02-26T17:18:57;3.30;;;1.77;;
5149;SDS011;2593;52.466;13.436;2023-02-26T17:21:24;4.70;;;1.47;;
5149;SDS011;2593;52.466;13.436;2023-02-26T17:23:50;1.50;;;1.40;;
5149;SDS011;2593;52.466;13.436;2023-02-26T17:26:16;2.30;;;1.17;;
5149;SDS011;2593;52.466;13.436;2023-02-26T17:28:41;1.90;;;1.13;;
5149;SDS011;2593;52.466;13.436;2023-02-26T17:31:07;4.80;;;1.60;;
5149;SDS011;2593;52.466;13.436;2023-02-26T17:33:35;2.50;;;1.43;;
5149;SDS011;2593;52.466;13.436;2023-02-26T17:36:04;2.47;;;1.50;;
5149;SDS011;2593;52.466;13.436;2023-02-26T17:38:31;8.50;;;2.37;;
5149;SDS011;2593;52.466;13.436;2023-02-26T17:40:57;2.90;;;2.03;;
5149;SDS011;2593;52.466;13.436;2023-02-26T17:43:24;7.70;;;2.77;;
5149;SDS011;2593;52.466;13.436;2023-02-26T17:45:49;2.93;;;2.27;;
5149;SDS011;2593;52.466;13.436;2023-02-26T17:48:16;10.07;;;4.90;;
5149;SDS011;2593;52.466;13.436;2023-02-26T17:50:54;3.33;;;2.33;;
5149;SDS011;2593;52.466;13.436;2023-02-26T17:53:22;5.90;;;3.33;;
5149;SDS011;2593;52.466;13.436;2023-02-26T17:55:52;3.10;;;1.90;;
5149;SDS011;2593;52.466;13.436;2023-02-26T18:00:56;2.77;;;2.30;;
5149;SDS011;2593;52.466;13.436;2023-02-26T18:03:21;27.53;;;2.40;;
5149;SDS011;2593;52.466;13.436;2023-02-26T18:05:48;4.90;;;1.77;;
5149;SDS011;2593;52.466;13.436;2023-02-26T18:10:45;1.53;;;1.13;;
5149;SDS011;2593;52.466;13.436;2023-02-26T18:13:11;3.60;;;1.30;;
5149;SDS011;2593;52.466;13.436;2023-02-26T18:15:36;4.80;;;2.07;;
5149;SDS011;2593;52.466;13.436;2023-02-26T18:18:02;2.80;;;1.60;;
5149;SDS011;2593;52.466;13.436;2023-02-26T18:20:30;4.17;;;1.80;;
5149;SDS011;2593;52.466;13.436;2023-02-26T18:22:56;2.47;;;1.57;;
5149;SDS011;2593;52.466;13.436;2023-02-26T18:25:22;2.83;;;2.10;;
5149;SDS011;2593;52.466;13.436;2023-02-26T18:27:51;7.67;;;2.97;;
5149;SDS011;2593;52.466;13.436;2023-02-26T18:30:24;3.83;;;1.80;;
5149;SDS011;2593;52.466;13.436;2023-02-26T18:32:52;3.70;;;1.83;;
5149;SDS011;2593;52.466;13.436;2023-02-26T18:35:18;1.63;;;1.53;;
5149;SDS011;2593;52.466;13.436;2023-02-26T18:37:44;1.63;;;1.40;;
5149;SDS011;2593;52.466;13.436;2023-02-26T18:40:19;3.07;;;2.07;;